Puritan, Pennsylvania
Current Conditions -  °F | °C
As of 7:54 PM on Friday 19 Dec 2014 (Local Time) from KJST Reporting Station
Overcast Overcast  
Wind Chill: 12°   Ceiling: 1700
Heat Index: 24°   Visibility: 10mi
Dew Point: 17°   Wind: 13mph
Humidity: 75%   Direction: 290°WNW
Pressure: 30.16"   Gusts: NA
Location:  40.3821°N, 78.6524°W
Report Text: KJST 200054Z AUTO 29011KT 10SM OVC017 M04/M08 A3016 RMK AO2 SLP245 T10441083
Loading
Personal Weather Stations






























Interactive Weather Map New forecast layout! Learn more

10-Day Weather Forecast

Advertisements
Track Severe Weather on mobile